Time;durP1;ratioP1;P1;durP2;ratioP2;P2;SDS_P1;SDS_P2;PMS_P1;PMS_P2;Temp;Humidity;BMP_temperature;BMP_pressure;BME280_temperature;BME280_humidity;BME280_pressure;Samples;Min_cycle;Max_cycle;Signal;HPM_P1;HPM_P2
2023/01/15 00:01:36;;;;;;;0.57;0.50;;;;;;;;;;5029498;28;20112;-61
2023/01/15 00:04:04;;;;;;;4.67;1.27;;;;;;;;;;5043698;28;20504;-61
2023/01/15 00:06:31;;;;;;;2.13;1.17;;;;;;;;;;5032749;28;20037;-61
2023/01/15 00:08:58;;;;;;;1.93;0.93;;;;;;;;;;5048009;28;20083;-61
2023/01/15 00:11:25;;;;;;;4.53;2.03;;;;;;;;;;5037460;28;20466;-62
2023/01/15 00:13:52;;;;;;;3.50;1.37;;;;;;;;;;5050867;28;20475;-61
2023/01/15 00:16:20;;;;;;;3.47;1.37;;;;;;;;;;5035780;28;20547;-61
2023/01/15 00:18:50;;;;;;;2.97;1.23;;;;;;;;;;5053501;28;20447;-61
2023/01/15 00:21:17;;;;;;;3.47;1.93;;;;;;;;;;5029165;28;20034;-62
2023/01/15 00:29:15;;;;;;;5.27;2.17;;;;;;;;;;5033615;28;20032;-61
2023/01/15 00:31:43;;;;;;;1.30;1.00;;;;;;;;;;5042508;28;20021;-61
2023/01/15 00:34:09;;;;;;;2.53;1.33;;;;;;;;;;5034497;28;20076;-61
2023/01/15 00:36:36;;;;;;;0.83;0.70;;;;;;;;;;5052878;28;20112;-61
2023/01/15 00:39:04;;;;;;;3.30;1.43;;;;;;;;;;5054203;28;20044;-61
2023/01/15 00:41:30;;;;;;;2.20;1.37;;;;;;;;;;5053029;28;20017;-61
2023/01/15 00:43:57;;;;;;;14.70;1.60;;;;;;;;;;5048917;28;20439;-62
2023/01/15 00:46:24;;;;;;;2.13;1.13;;;;;;;;;;5048616;28;20033;-61
2023/01/15 00:48:51;;;;;;;3.90;1.30;;;;;;;;;;5029110;28;20029;-62
2023/01/15 00:51:17;;;;;;;2.70;1.33;;;;;;;;;;5028675;28;20392;-61
2023/01/15 00:53:44;;;;;;;7.83;1.80;;;;;;;;;;5034183;28;20025;-61
2023/01/15 00:56:11;;;;;;;5.83;1.27;;;;;;;;;;5034072;28;20120;-62
2023/01/15 00:58:37;;;;;;;2.47;1.50;;;;;;;;;;5033719;28;20040;-61
2023/01/15 01:01:04;;;;;;;1.63;0.97;;;;;;;;;;5035086;28;20021;-61
2023/01/15 01:03:31;;;;;;;3.97;1.60;;;;;;;;;;5053409;28;20032;-61
2023/01/15 01:06:04;;;;;;;1.70;1.03;;;;;;;;;;5048170;28;20029;-61
2023/01/15 01:08:30;;;;;;;5.23;1.67;;;;;;;;;;5047461;28;20100;-61
2023/01/15 01:11:03;;;;;;;1.67;1.03;;;;;;;;;;5030620;28;20022;-61
2023/01/15 01:13:30;;;;;;;9.77;1.63;;;;;;;;;;5028059;28;20030;-61
2023/01/15 01:15:58;;;;;;;1.97;1.40;;;;;;;;;;5033590;28;20029;-61
2023/01/15 01:18:24;;;;;;;1.40;0.90;;;;;;;;;;5042776;28;20041;-61
2023/01/15 01:20:51;;;;;;;2.00;1.20;;;;;;;;;;5037310;28;20489;-61
2023/01/15 01:23:18;;;;;;;4.63;1.87;;;;;;;;;;5034511;28;20029;-62
2023/01/15 01:25:45;;;;;;;9.10;1.53;;;;;;;;;;5033728;28;20028;-61
2023/01/15 01:28:12;;;;;;;2.73;1.53;;;;;;;;;;5028029;28;20028;-61
2023/01/15 01:30:39;;;;;;;2.03;1.07;;;;;;;;;;5041863;28;20028;-63
2023/01/15 01:33:05;;;;;;;10.23;2.23;;;;;;;;;;5030900;28;20171;-61
2023/01/15 01:35:32;;;;;;;1.43;0.90;;;;;;;;;;5046760;28;20031;-61
2023/01/15 01:37:59;;;;;;;3.23;1.77;;;;;;;;;;5052106;28;20035;-61
2023/01/15 01:40:25;;;;;;;4.10;2.03;;;;;;;;;;5045170;28;20507;-61
2023/01/15 01:42:52;;;;;;;2.17;1.20;;;;;;;;;;5052825;28;20031;-61
2023/01/15 01:45:19;;;;;;;6.10;2.30;;;;;;;;;;5051432;28;20025;-61
2023/01/15 01:47:46;;;;;;;2.07;1.27;;;;;;;;;;5052772;28;20033;-61
2023/01/15 01:50:13;;;;;;;5.60;2.40;;;;;;;;;;5047611;28;20021;-60
2023/01/15 01:52:46;;;;;;;8.17;2.27;;;;;;;;;;5047290;28;20052;-61
2023/01/15 01:55:14;;;;;;;1.27;0.97;;;;;;;;;;5042825;28;20033;-63
2023/01/15 01:57:42;;;;;;;3.47;2.17;;;;;;;;;;5027252;28;20033;-63
2023/01/15 02:00:10;;;;;;;1.70;1.30;;;;;;;;;;5032135;28;20025;-61
2023/01/15 02:02:37;;;;;;;2.73;1.43;;;;;;;;;;5036382;28;20036;-61
2023/01/15 02:05:04;;;;;;;2.53;1.30;;;;;;;;;;5046189;28;20053;-61
2023/01/15 02:07:32;;;;;;;2.10;1.10;;;;;;;;;;5051915;28;20021;-60
2023/01/15 02:09:59;;;;;;;2.43;1.00;;;;;;;;;;5052654;28;20028;-61
2023/01/15 02:12:31;;;;;;;3.20;1.50;;;;;;;;;;5037580;28;20459;-61
2023/01/15 02:14:59;;;;;;;6.00;2.33;;;;;;;;;;5039354;28;20029;-61
2023/01/15 02:17:34;;;;;;;5.23;2.17;;;;;;;;;;5032897;28;20059;-63
2023/01/15 02:20:04;;;;;;;3.28;2.05;;;;;;;;;;5046031;28;20487;-63
2023/01/15 02:22:30;;;;;;;6.87;3.00;;;;;;;;;;5051424;28;20356;-61
2023/01/15 02:25:10;;;;;;;11.03;3.70;;;;;;;;;;5051724;28;20430;-61
2023/01/15 02:27:38;;;;;;;2.80;1.53;;;;;;;;;;5043642;28;20032;-61
2023/01/15 02:30:22;;;;;;;4.80;1.57;;;;;;;;;;5051873;28;20060;-61
2023/01/15 02:32:54;;;;;;;4.93;2.10;;;;;;;;;;5051370;28;20040;-61
2023/01/15 02:35:27;;;;;;;3.40;1.67;;;;;;;;;;5031706;28;20111;-61
2023/01/15 02:37:55;;;;;;;3.53;1.83;;;;;;;;;;5026953;28;20073;-61
2023/01/15 02:40:26;;;;;;;3.97;1.60;;;;;;;;;;5026515;28;20052;-63
2023/01/15 02:42:53;;;;;;;1.70;1.30;;;;;;;;;;5027379;28;20033;-62
2023/01/15 02:45:29;;;;;;;2.87;2.17;;;;;;;;;;5032344;28;20472;-63
2023/01/15 02:47:58;;;;;;;12.97;3.40;;;;;;;;;;5051897;28;20025;-60
2023/01/15 02:50:27;;;;;;;4.97;2.30;;;;;;;;;;5049271;28;20361;-61
2023/01/15 02:52:56;;;;;;;6.37;2.07;;;;;;;;;;5051373;28;20098;-61
2023/01/15 02:55:27;;;;;;;4.93;2.37;;;;;;;;;;5050969;28;20107;-60
2023/01/15 02:57:56;;;;;;;3.30;1.73;;;;;;;;;;5046304;28;20472;-61
2023/01/15 03:00:24;;;;;;;25.73;2.10;;;;;;;;;;5045452;28;20033;-61
2023/01/15 03:02:55;;;;;;;3.33;1.80;;;;;;;;;;5031521;28;20120;-61
2023/01/15 03:05:31;;;;;;;1.63;1.17;;;;;;;;;;5047376;28;20028;-61
2023/01/15 03:07:59;;;;;;;5.00;2.47;;;;;;;;;;5032194;28;20730;-60
2023/01/15 03:10:44;;;;;;;4.63;1.63;;;;;;;;;;5032788;28;20100;-60
2023/01/15 03:13:15;;;;;;;4.82;2.17;;;;;;;;;;5043141;28;20108;-61
2023/01/15 03:18:28;;;;;;;3.05;2.20;;;;;;;;;;5046212;28;20510;-61
2023/01/15 03:20:57;;;;;;;3.70;1.77;;;;;;;;;;5046821;28;20021;-61
2023/01/15 03:23:26;;;;;;;9.93;1.77;;;;;;;;;;5046669;28;20029;-60
2023/01/15 03:25:53;;;;;;;2.03;1.13;;;;;;;;;;5046239;28;20112;-61
2023/01/15 03:28:27;;;;;;;9.13;2.37;;;;;;;;;;5048844;28;20021;-61
2023/01/15 03:30:54;;;;;;;9.45;1.35;;;;;;;;;;5041229;28;20052;-61
2023/01/15 03:33:21;;;;;;;2.70;1.73;;;;;;;;;;5042344;28;20068;-61
2023/01/15 03:35:54;;;;;;;2.53;1.60;;;;;;;;;;5044718;28;20550;-61
2023/01/15 03:38:22;;;;;;;1.90;1.53;;;;;;;;;;5043679;28;20025;-61
2023/01/15 03:41:03;;;;;;;4.33;2.10;;;;;;;;;;5032977;28;20478;-60
2023/01/15 03:43:41;;;;;;;2.03;1.23;;;;;;;;;;5031365;28;20165;-61
2023/01/15 03:46:21;;;;;;;8.17;1.40;;;;;;;;;;5040214;28;20025;-61
2023/01/15 03:49:09;;;;;;;2.63;1.47;;;;;;;;;;5047836;28;20025;-61
2023/01/15 03:51:59;;;;;;;1.80;1.37;;;;;;;;;;5041432;28;20033;-61
2023/01/15 03:54:46;;;;;;;1.77;1.23;;;;;;;;;;5025239;28;20041;-61
2023/01/15 03:57:33;;;;;;;3.00;2.07;;;;;;;;;;5026578;28;20040;-60
2023/01/15 04:00:01;;;;;;;5.63;1.53;;;;;;;;;;5037408;28;20357;-61
2023/01/15 04:02:30;;;;;;;3.47;1.77;;;;;;;;;;5050720;28;20052;-60
2023/01/15 04:04:58;;;;;;;1.93;1.03;;;;;;;;;;5041361;28;20068;-61
2023/01/15 04:07:25;;;;;;;3.23;2.23;;;;;;;;;;5032446;28;20103;-61
2023/01/15 04:09:52;;;;;;;5.23;1.77;;;;;;;;;;5048022;28;20024;-61
2023/01/15 04:12:19;;;;;;;2.80;1.57;;;;;;;;;;5044231;28;20029;-61
2023/01/15 04:14:45;;;;;;;4.40;1.87;;;;;;;;;;5053343;28;20100;-61
2023/01/15 04:17:12;;;;;;;1.90;0.93;;;;;;;;;;5043430;28;20461;-60
2023/01/15 04:19:39;;;;;;;11.00;2.83;;;;;;;;;;5034923;28;20032;-61
2023/01/15 04:22:06;;;;;;;2.40;1.03;;;;;;;;;;5035056;28;20030;-61
2023/01/15 04:24:32;;;;;;;3.70;2.30;;;;;;;;;;5033594;28;20037;-61
2023/01/15 04:26:59;;;;;;;2.00;1.33;;;;;;;;;;5030578;28;20106;-62
2023/01/15 04:29:26;;;;;;;5.63;1.17;;;;;;;;;;5040387;28;20499;-60
2023/01/15 04:31:56;;;;;;;0.70;0.60;;;;;;;;;;5047655;28;20471;-61
2023/01/15 04:34:26;;;;;;;2.77;0.90;;;;;;;;;;5047660;28;20033;-61
2023/01/15 04:36:53;;;;;;;3.10;1.10;;;;;;;;;;5053139;28;20025;-61
2023/01/15 04:39:20;;;;;;;2.43;1.23;;;;;;;;;;5048376;28;20037;-60
2023/01/15 04:44:33;;;;;;;1.50;0.80;;;;;;;;;;5035014;28;20661;-60
2023/01/15 04:46:59;;;;;;;2.03;1.17;;;;;;;;;;5040531;28;20029;-61
2023/01/15 04:49:27;;;;;;;1.13;0.70;;;;;;;;;;5049047;28;20052;-61
2023/01/15 04:51:53;;;;;;;5.07;1.30;;;;;;;;;;5048264;28;20273;-62
2023/01/15 04:54:21;;;;;;;9.13;1.60;;;;;;;;;;5048670;28;20043;-61
2023/01/15 04:56:49;;;;;;;0.50;0.50;;;;;;;;;;5046904;28;20273;-60
2023/01/15 04:59:17;;;;;;;0.60;0.50;;;;;;;;;;5033456;28;20065;-61
2023/01/15 05:01:44;;;;;;;2.73;1.97;;;;;;;;;;5035066;28;20021;-61
2023/01/15 05:04:10;;;;;;;1.57;1.07;;;;;;;;;;5054091;28;20254;-60
2023/01/15 05:06:37;;;;;;;2.00;1.07;;;;;;;;;;5053356;28;20294;-60
2023/01/15 05:09:05;;;;;;;6.33;0.90;;;;;;;;;;5039974;28;20112;-60
2023/01/15 05:11:34;;;;;;;2.50;1.17;;;;;;;;;;5044103;28;20262;-61
2023/01/15 05:14:00;;;;;;;3.20;1.10;;;;;;;;;;5028212;28;20333;-60
2023/01/15 05:16:29;;;;;;;1.27;0.57;;;;;;;;;;5028780;28;20329;-60
2023/01/15 05:18:58;;;;;;;0.77;0.50;;;;;;;;;;5040323;28;20308;-61
2023/01/15 05:21:26;;;;;;;0.53;0.43;;;;;;;;;;5033671;28;20637;-60
2023/01/15 05:23:54;;;;;;;1.30;0.63;;;;;;;;;;5041897;28;20270;-61
2023/01/15 05:26:21;;;;;;;4.20;1.27;;;;;;;;;;5053267;28;20266;-61
2023/01/15 05:28:48;;;;;;;1.40;0.93;;;;;;;;;;5052838;28;20262;-60
2023/01/15 05:31:17;;;;;;;2.87;1.63;;;;;;;;;;5046888;28;20294;-60
2023/01/15 05:33:44;;;;;;;3.20;0.83;;;;;;;;;;5029242;28;20815;-60
2023/01/15 05:36:12;;;;;;;0.53;0.40;;;;;;;;;;5028373;28;20271;-61
2023/01/15 05:38:39;;;;;;;3.53;1.47;;;;;;;;;;5028084;28;20776;-60
2023/01/15 05:41:52;;;;;;;0.73;0.73;;;;;;;;;;5030740;28;20259;-60
2023/01/15 05:43:55;;;;;;;1.43;0.97;;;;;;;;;;5045454;28;20278;-61
2023/01/15 05:46:22;;;;;;;2.00;1.33;;;;;;;;;;5042730;28;20270;-60
2023/01/15 05:48:49;;;;;;;0.67;0.60;;;;;;;;;;5053092;28;20261;-61
2023/01/15 05:51:16;;;;;;;1.37;1.10;;;;;;;;;;5052846;28;20733;-60
2023/01/15 05:53:42;;;;;;;1.83;1.03;;;;;;;;;;5050230;28;20296;-61
2023/01/15 05:56:09;;;;;;;3.70;0.80;;;;;;;;;;5046430;28;20270;-60
2023/01/15 05:58:38;;;;;;;1.43;1.00;;;;;;;;;;5047309;28;20294;-60
2023/01/15 06:01:09;;;;;;;3.97;1.07;;;;;;;;;;5046802;28;20320;-61
2023/01/15 06:03:35;;;;;;;0.40;0.37;;;;;;;;;;5047967;28;20266;-60
2023/01/15 06:06:03;;;;;;;0.53;0.43;;;;;;;;;;5052520;28;20293;-61
2023/01/15 06:08:29;;;;;;;1.23;0.70;;;;;;;;;;5052509;28;20265;-60
2023/01/15 06:10:56;;;;;;;2.37;0.93;;;;;;;;;;5050572;28;20270;-60
2023/01/15 06:13:23;;;;;;;2.37;1.33;;;;;;;;;;5043624;28;20289;-60
2023/01/15 06:15:49;;;;;;;0.57;0.57;;;;;;;;;;5049467;28;20293;-61
2023/01/15 06:18:16;;;;;;;0.47;0.47;;;;;;;;;;5030369;28;20333;-61
2023/01/15 06:20:43;;;;;;;0.57;0.50;;;;;;;;;;5027428;28;20271;-60
2023/01/15 06:23:10;;;;;;;0.67;0.60;;;;;;;;;;5027206;28;20278;-60
2023/01/15 06:25:37;;;;;;;1.87;1.00;;;;;;;;;;5027778;28;20275;-60
2023/01/15 06:28:04;;;;;;;1.60;0.83;;;;;;;;;;5032515;28;20349;-60
2023/01/15 06:30:31;;;;;;;3.57;1.20;;;;;;;;;;5039174;28;20673;-60
2023/01/15 06:32:58;;;;;;;1.13;0.63;;;;;;;;;;5051983;28;20258;-60
2023/01/15 06:35:24;;;;;;;0.30;0.27;;;;;;;;;;5052155;28;20741;-60
2023/01/15 06:37:51;;;;;;;0.50;0.40;;;;;;;;;;5050701;28;20784;-60
2023/01/15 06:40:18;;;;;;;2.03;0.57;;;;;;;;;;5046680;28;20273;-61
2023/01/15 06:48:23;;;;;;;2.87;1.57;;;;;;;;;;5048922;28;20071;-61
2023/01/15 06:50:50;;;;;;;7.10;1.50;;;;;;;;;;5043815;28;20657;-60
2023/01/15 06:53:16;;;;;;;2.00;0.93;;;;;;;;;;5032146;28;20312;-60
2023/01/15 06:55:43;;;;;;;0.53;0.53;;;;;;;;;;5032213;28;20286;-60
2023/01/15 06:58:10;;;;;;;0.70;0.50;;;;;;;;;;5032973;28;20294;-60
2023/01/15 07:00:36;;;;;;;0.93;0.60;;;;;;;;;;5049460;28;20270;-61
2023/01/15 07:03:04;;;;;;;3.97;1.17;;;;;;;;;;5039749;28;20262;-60
2023/01/15 07:05:30;;;;;;;3.20;1.67;;;;;;;;;;5027793;28;20251;-60
2023/01/15 07:07:57;;;;;;;1.20;0.87;;;;;;;;;;5040570;28;20263;-60
2023/01/15 07:10:24;;;;;;;0.90;0.70;;;;;;;;;;5051222;28;20281;-60
2023/01/15 07:12:51;;;;;;;0.20;0.20;;;;;;;;;;5055613;28;20268;-61
2023/01/15 07:15:18;;;;;;;1.00;0.63;;;;;;;;;;5052561;28;20876;-60
2023/01/15 07:17:44;;;;;;;1.87;1.10;;;;;;;;;;5046500;28;20282;-60
2023/01/15 07:20:11;;;;;;;0.87;0.67;;;;;;;;;;5056376;28;20767;-60
2023/01/15 07:22:38;;;;;;;1.30;0.87;;;;;;;;;;5043580;28;20266;-60
2023/01/15 07:25:05;;;;;;;0.30;0.30;;;;;;;;;;5049929;28;20276;-60
2023/01/15 07:27:32;;;;;;;1.57;0.73;;;;;;;;;;5049266;28;20597;-60
2023/01/15 07:29:59;;;;;;;1.07;0.50;;;;;;;;;;5050186;28;20798;-60
2023/01/15 07:32:26;;;;;;;0.83;0.50;;;;;;;;;;5050983;28;20272;-60
2023/01/15 07:34:53;;;;;;;0.33;0.30;;;;;;;;;;5055445;28;20270;-60
2023/01/15 07:37:19;;;;;;;1.00;0.80;;;;;;;;;;5047610;28;20373;-60
2023/01/15 07:39:46;;;;;;;0.40;0.40;;;;;;;;;;5035625;28;20753;-60
2023/01/15 07:50:28;;;;;;;1.88;0.82;;;;;;;;;;5030176;28;20430;-61
2023/01/15 07:52:55;;;;;;;1.03;0.70;;;;;;;;;;5046269;28;20041;-60
2023/01/15 07:55:22;;;;;;;1.30;1.13;;;;;;;;;;5032504;28;20262;-60
2023/01/15 07:57:49;;;;;;;3.03;1.07;;;;;;;;;;5035309;28;20286;-60
2023/01/15 08:00:19;;;;;;;1.60;1.10;;;;;;;;;;5035113;28;20266;-61
2023/01/15 08:02:48;;;;;;;1.53;1.17;;;;;;;;;;5035189;28;20325;-60
2023/01/15 08:05:15;;;;;;;0.87;0.70;;;;;;;;;;5049946;28;20270;-60
2023/01/15 08:07:42;;;;;;;2.13;1.13;;;;;;;;;;5032040;28;20259;-60
2023/01/15 08:10:10;;;;;;;0.73;0.60;;;;;;;;;;5029947;28;20768;-60
2023/01/15 08:15:22;;;;;;;0.60;0.55;;;;;;;;;;5029830;28;20313;-61
2023/01/15 08:17:49;;;;;;;1.50;1.03;;;;;;;;;;5040586;28;20031;-60
2023/01/15 08:20:20;;;;;;;0.70;0.57;;;;;;;;;;5042284;28;20263;-60
2023/01/15 08:22:47;;;;;;;2.23;0.73;;;;;;;;;;5034734;28;20263;-60
2023/01/15 08:25:15;;;;;;;1.50;0.63;;;;;;;;;;5034515;28;20255;-60
2023/01/15 08:27:42;;;;;;;0.83;0.40;;;;;;;;;;5034878;28;20359;-60
2023/01/15 08:30:11;;;;;;;0.60;0.50;;;;;;;;;;5031863;28;20736;-60
2023/01/15 08:32:38;;;;;;;0.93;0.50;;;;;;;;;;5029348;28;20283;-61
2023/01/15 08:35:05;;;;;;;1.93;0.93;;;;;;;;;;5046894;28;20273;-60
2023/01/15 08:37:32;;;;;;;4.40;0.77;;;;;;;;;;5048797;28;20369;-61
2023/01/15 08:39:58;;;;;;;0.37;0.27;;;;;;;;;;5052359;28;20273;-60
2023/01/15 08:42:25;;;;;;;1.33;0.50;;;;;;;;;;5053640;28;20839;-60
2023/01/15 08:44:52;;;;;;;1.70;0.80;;;;;;;;;;5054304;28;20260;-60
2023/01/15 08:47:19;;;;;;;1.93;0.77;;;;;;;;;;5046827;28;20328;-60
2023/01/15 08:49:49;;;;;;;2.00;0.87;;;;;;;;;;5042289;28;20267;-60
2023/01/15 08:52:16;;;;;;;1.30;0.53;;;;;;;;;;5030773;28;20644;-60
2023/01/15 08:54:43;;;;;;;0.30;0.20;;;;;;;;;;5037763;28;20328;-60
2023/01/15 08:57:11;;;;;;;0.93;0.53;;;;;;;;;;5043452;28;20668;-60
2023/01/15 08:59:38;;;;;;;4.23;1.00;;;;;;;;;;5028880;28;20641;-60
2023/01/15 09:02:04;;;;;;;0.30;0.30;;;;;;;;;;5031761;28;20275;-61
2023/01/15 09:04:31;;;;;;;1.80;0.93;;;;;;;;;;5035391;28;20349;-60
2023/01/15 09:06:58;;;;;;;0.20;0.20;;;;;;;;;;5034072;28;20259;-60
2023/01/15 09:09:24;;;;;;;1.03;0.47;;;;;;;;;;5046572;28;20292;-60
2023/01/15 09:11:51;;;;;;;0.43;0.30;;;;;;;;;;5053637;28;20783;-60
2023/01/15 09:14:18;;;;;;;0.20;0.20;;;;;;;;;;5035048;28;20271;-60
2023/01/15 09:16:44;;;;;;;0.10;0.10;;;;;;;;;;5044034;28;20270;-60
2023/01/15 09:19:11;;;;;;;0.47;0.47;;;;;;;;;;5032315;28;20349;-60
2023/01/15 09:21:38;;;;;;;3.37;0.80;;;;;;;;;;5042405;28;20273;-59
2023/01/15 09:24:05;;;;;;;0.37;0.30;;;;;;;;;;5033683;28;20274;-60
2023/01/15 09:26:35;;;;;;;1.37;0.90;;;;;;;;;;5033850;28;20258;-61
2023/01/15 09:29:03;;;;;;;0.50;0.40;;;;;;;;;;5045471;28;20262;-60
2023/01/15 09:31:30;;;;;;;0.83;0.60;;;;;;;;;;5046460;28;20769;-60
2023/01/15 09:33:58;;;;;;;0.53;0.50;;;;;;;;;;5033616;28;20777;-60
2023/01/15 09:36:29;;;;;;;2.77;1.63;;;;;;;;;;5030331;28;20275;-60
2023/01/15 09:38:57;;;;;;;1.57;0.73;;;;;;;;;;5028238;28;20294;-60
2023/01/15 09:44:35;;;;;;;0.53;0.47;;;;;;;;;;5006463;28;20271;-60
2023/01/15 09:47:15;;;;;;;0.43;0.37;;;;;;;;;;5029584;28;20270;-60
2023/01/15 09:50:00;;;;;;;1.03;0.67;;;;;;;;;;5033293;28;20266;-60
2023/01/15 09:52:42;;;;;;;0.88;0.52;;;;;;;;;;5050774;28;20757;-60
2023/01/15 09:55:25;;;;;;;0.53;0.53;;;;;;;;;;5052994;28;20021;-60
2023/01/15 09:57:57;;;;;;;1.47;0.73;;;;;;;;;;5034739;28;20708;-61
2023/01/15 10:00:26;;;;;;;0.57;0.57;;;;;;;;;;5047266;28;20393;-60
2023/01/15 10:03:02;;;;;;;1.40;1.03;;;;;;;;;;5042025;28;20768;-61
2023/01/15 10:05:31;;;;;;;1.80;1.03;;;;;;;;;;5027485;28;20251;-60
2023/01/15 10:08:04;;;;;;;1.33;1.00;;;;;;;;;;5029219;28;20667;-60
2023/01/15 10:10:33;;;;;;;0.77;0.40;;;;;;;;;;5036939;28;20262;-60
2023/01/15 10:13:07;;;;;;;0.93;0.70;;;;;;;;;;5039043;28;20267;-60
2023/01/15 10:15:41;;;;;;;1.23;1.02;;;;;;;;;;5032657;28;20269;-60
2023/01/15 10:18:13;;;;;;;2.13;1.07;;;;;;;;;;5043079;28;20476;-60
2023/01/15 10:20:48;;;;;;;5.97;2.50;;;;;;;;;;5048298;28;20282;-60
2023/01/15 10:23:27;;;;;;;1.13;1.00;;;;;;;;;;5027262;28;20270;-60
2023/01/15 10:26:17;;;;;;;0.53;0.53;;;;;;;;;;5041817;28;20021;-60
2023/01/15 10:29:02;;;;;;;2.57;1.07;;;;;;;;;;5046626;28;20915;-60
2023/01/15 10:31:47;;;;;;;1.02;0.68;;;;;;;;;;5051058;28;20667;-60
2023/01/15 10:34:35;;;;;;;1.90;0.50;;;;;;;;;;5052553;28;20029;-60
2023/01/15 10:37:11;;;;;;;1.10;0.70;;;;;;;;;;5032356;28;20549;-60
2023/01/15 10:39:41;;;;;;;1.13;0.70;;;;;;;;;;5043072;28;20822;-60
2023/01/15 10:42:28;;;;;;;0.70;0.43;;;;;;;;;;5050618;28;20266;-60
2023/01/15 10:45:03;;;;;;;0.43;0.37;;;;;;;;;;5046617;28;20273;-60
2023/01/15 10:47:35;;;;;;;0.40;0.40;;;;;;;;;;5046554;28;20598;-60
2023/01/15 10:50:03;;;;;;;0.83;0.70;;;;;;;;;;5047123;28;20032;-60
2023/01/15 10:52:35;;;;;;;0.50;0.30;;;;;;;;;;5046881;28;20273;-60
2023/01/15 10:55:08;;;;;;;1.43;0.50;;;;;;;;;;5032114;28;20353;-60
2023/01/15 10:57:58;;;;;;;0.37;0.37;;;;;;;;;;5031739;28;20286;-60
2023/01/15 11:00:25;;;;;;;7.40;0.80;;;;;;;;;;5032190;28;20420;-60
2023/01/15 11:03:10;;;;;;;0.73;0.63;;;;;;;;;;5035284;28;20756;-60
2023/01/15 11:05:37;;;;;;;0.65;0.57;;;;;;;;;;5047681;28;20270;-60
2023/01/15 11:08:07;;;;;;;1.13;0.63;;;;;;;;;;5033302;28;20367;-60
2023/01/15 11:10:33;;;;;;;0.53;0.43;;;;;;;;;;5026772;28;20331;-60
2023/01/15 11:21:22;;;;;;;0.53;0.53;;;;;;;;;;5045437;28;20358;-60
2023/01/15 11:23:49;;;;;;;0.30;0.30;;;;;;;;;;5041016;28;20298;-60
2023/01/15 11:26:24;;;;;;;0.70;0.70;;;;;;;;;;5051440;28;20258;-60
2023/01/15 11:28:52;;;;;;;1.10;0.60;;;;;;;;;;5046660;28;20336;-60
2023/01/15 11:31:19;;;;;;;0.70;0.67;;;;;;;;;;5046459;28;20802;-60
2023/01/15 11:33:57;;;;;;;0.30;0.30;;;;;;;;;;5026429;28;20267;-60
2023/01/15 11:36:26;;;;;;;0.50;0.50;;;;;;;;;;5039814;28;20791;-60
2023/01/15 11:38:52;;;;;;;0.83;0.60;;;;;;;;;;5049658;28;20679;-60
2023/01/15 11:41:24;;;;;;;0.57;0.57;;;;;;;;;;5036845;28;20312;-60
2023/01/15 11:52:36;;;;;;;0.40;0.40;;;;;;;;;;5029074;28;20071;-60
2023/01/15 11:55:03;;;;;;;0.40;0.40;;;;;;;;;;5044073;28;20598;-59
2023/01/15 11:57:31;;;;;;;0.63;0.63;;;;;;;;;;5049595;28;20277;-60
2023/01/15 11:59:58;;;;;;;1.53;1.00;;;;;;;;;;5053463;28;20269;-60
2023/01/15 12:02:25;;;;;;;0.57;0.57;;;;;;;;;;5053331;28;20273;-60
2023/01/15 12:04:58;;;;;;;1.20;1.10;;;;;;;;;;5039613;28;20270;-59
2023/01/15 12:07:25;;;;;;;3.30;1.43;;;;;;;;;;5052291;28;20270;-60
2023/01/15 12:10:02;;;;;;;0.20;0.20;;;;;;;;;;5038849;28;20274;-60
2023/01/15 12:12:47;;;;;;;1.07;0.60;;;;;;;;;;5034041;28;20266;-60
2023/01/15 12:15:20;;;;;;;0.65;0.60;;;;;;;;;;5049768;28;20254;-60
2023/01/15 12:17:46;;;;;;;0.40;0.40;;;;;;;;;;5040431;28;20116;-59
2023/01/15 12:20:19;;;;;;;0.40;0.40;;;;;;;;;;5029233;28;20275;-60
2023/01/15 12:23:04;;;;;;;0.83;0.70;;;;;;;;;;5042814;28;20277;-60
2023/01/15 12:25:47;;;;;;;1.00;0.70;;;;;;;;;;5036174;28;20251;-60
2023/01/15 12:28:30;;;;;;;1.53;0.87;;;;;;;;;;5034409;28;20057;-60
2023/01/15 12:31:00;;;;;;;1.83;0.53;;;;;;;;;;5034821;28;20353;-60
2023/01/15 12:33:30;;;;;;;1.60;0.97;;;;;;;;;;5032660;28;20788;-60
2023/01/15 12:36:17;;;;;;;0.40;0.40;;;;;;;;;;5029396;28;20251;-60
2023/01/15 12:38:51;;;;;;;3.40;0.50;;;;;;;;;;5021926;28;20291;-60
2023/01/15 12:47:21;;;;;;;0.70;0.60;;;;;;;;;;5054681;28;20540;-59
2023/01/15 12:49:53;;;;;;;0.50;0.50;;;;;;;;;;5054318;28;20261;-60
2023/01/15 12:52:23;;;;;;;3.50;1.30;;;;;;;;;;5054238;28;20756;-60
2023/01/15 12:55:09;;;;;;;1.90;1.40;;;;;;;;;;5053492;28;20373;-60
2023/01/15 12:57:41;;;;;;;1.37;1.10;;;;;;;;;;5037907;28;20270;-59
2023/01/15 13:00:13;;;;;;;1.00;0.90;;;;;;;;;;5048983;28;20358;-60
2023/01/15 13:02:48;;;;;;;2.60;1.40;;;;;;;;;;5048587;28;20292;-60
2023/01/15 13:05:19;;;;;;;0.90;0.80;;;;;;;;;;5049975;28;20262;-60
2023/01/15 13:07:53;;;;;;;2.73;0.93;;;;;;;;;;5036329;28;20328;-60
2023/01/15 13:10:24;;;;;;;1.73;1.17;;;;;;;;;;5034044;28;20772;-60
2023/01/15 13:12:52;;;;;;;1.00;0.90;;;;;;;;;;5049700;28;20270;-60
2023/01/15 13:15:20;;;;;;;3.50;2.30;;;;;;;;;;5053934;28;20290;-60
2023/01/15 13:17:53;;;;;;;2.83;2.13;;;;;;;;;;5040448;28;20294;-60
2023/01/15 13:20:40;;;;;;;4.23;2.63;;;;;;;;;;5028578;28;20858;-60
2023/01/15 13:23:25;;;;;;;5.63;3.13;;;;;;;;;;5028301;28;20275;-60
2023/01/15 13:26:15;;;;;;;5.53;2.17;;;;;;;;;;5029720;28;20255;-60
2023/01/15 13:28:42;;;;;;;5.83;2.37;;;;;;;;;;5041798;28;20041;-60
2023/01/15 13:31:16;;;;;;;15.77;2.97;;;;;;;;;;5044672;28;20267;-60
2023/01/15 13:33:46;;;;;;;4.88;3.22;;;;;;;;;;5033504;28;20792;-60
2023/01/15 13:36:13;;;;;;;6.43;4.37;;;;;;;;;;5033467;28;20032;-60
2023/01/15 13:38:41;;;;;;;4.83;3.10;;;;;;;;;;5033670;28;20777;-60
2023/01/15 13:41:09;;;;;;;7.93;3.87;;;;;;;;;;5028360;28;20289;-60
2023/01/15 13:43:43;;;;;;;27.90;4.07;;;;;;;;;;5029162;28;20318;-60
2023/01/15 13:46:11;;;;;;;10.43;5.82;;;;;;;;;;5038263;28;20270;-60
2023/01/15 13:48:41;;;;;;;4.60;3.53;;;;;;;;;;5047222;28;20025;-60
2023/01/15 13:51:22;;;;;;;22.20;4.63;;;;;;;;;;5052217;28;20281;-60
2023/01/15 13:53:50;;;;;;;2.87;2.57;;;;;;;;;;5053070;28;20262;-60
2023/01/15 13:56:26;;;;;;;27.50;3.43;;;;;;;;;;5048345;28;20259;-61
2023/01/15 13:58:54;;;;;;;2.00;1.57;;;;;;;;;;5048708;28;20328;-60
2023/01/15 14:01:23;;;;;;;14.83;3.10;;;;;;;;;;5052273;28;20352;-60
2023/01/15 14:04:08;;;;;;;3.07;2.13;;;;;;;;;;5034314;28;20270;-60
2023/01/15 14:06:39;;;;;;;21.23;1.60;;;;;;;;;;5030371;28;20306;-60
2023/01/15 14:09:09;;;;;;;3.23;2.00;;;;;;;;;;5046979;28;20028;-60
2023/01/15 14:11:47;;;;;;;1.30;1.10;;;;;;;;;;5048485;28;20299;-60
2023/01/15 14:14:32;;;;;;;5.90;2.17;;;;;;;;;;5037436;28;20302;-61
2023/01/15 14:17:18;;;;;;;6.00;3.28;;;;;;;;;;5042225;28;20273;-61
2023/01/15 14:19:59;;;;;;;6.37;2.87;;;;;;;;;;5052136;28;20128;-61
2023/01/15 14:22:40;;;;;;;5.27;2.67;;;;;;;;;;5052181;28;20802;-61
2023/01/15 14:25:21;;;;;;;3.27;1.87;;;;;;;;;;5034157;28;20313;-60
2023/01/15 14:28:07;;;;;;;3.63;2.03;;;;;;;;;;5044143;28;20345;-60
2023/01/15 14:30:57;;;;;;;2.97;1.83;;;;;;;;;;5046672;28;20277;-60
2023/01/15 14:33:36;;;;;;;3.87;2.00;;;;;;;;;;5036361;28;20707;-61
2023/01/15 14:36:15;;;;;;;2.40;1.77;;;;;;;;;;5052267;28;20286;-60
2023/01/15 14:38:49;;;;;;;1.87;1.00;;;;;;;;;;5052049;28;20329;-61
2023/01/15 14:41:15;;;;;;;1.07;0.97;;;;;;;;;;5052334;28;20250;-61
2023/01/15 14:43:48;;;;;;;4.60;1.70;;;;;;;;;;5051989;28;20274;-61
2023/01/15 14:46:14;;;;;;;2.80;1.80;;;;;;;;;;5050025;28;20319;-61
2023/01/15 14:48:41;;;;;;;1.43;1.03;;;;;;;;;;5034908;28;20290;-61
2023/01/15 14:51:10;;;;;;;1.70;1.33;;;;;;;;;;5026765;28;20282;-61
2023/01/15 14:53:38;;;;;;;2.10;0.90;;;;;;;;;;5026632;28;20029;-61
2023/01/15 14:56:12;;;;;;;1.77;1.10;;;;;;;;;;5028475;28;20109;-61
2023/01/15 14:58:48;;;;;;;1.77;0.95;;;;;;;;;;5033103;28;20140;-61
2023/01/15 15:01:21;;;;;;;1.97;1.30;;;;;;;;;;5033250;28;20040;-61
2023/01/15 15:03:55;;;;;;;3.67;1.50;;;;;;;;;;5040065;28;20067;-61
2023/01/15 15:06:22;;;;;;;1.97;1.17;;;;;;;;;;5051916;28;20029;-62
2023/01/15 15:08:50;;;;;;;3.20;1.13;;;;;;;;;;5047596;28;20032;-62
2023/01/15 15:14:17;;;;;;;12.93;2.20;;;;;;;;;;5046618;28;20506;-61
2023/01/15 15:16:46;;;;;;;1.60;1.23;;;;;;;;;;5032790;28;20381;-61
2023/01/15 15:19:22;;;;;;;3.27;2.03;;;;;;;;;;5039375;28;20104;-61
2023/01/15 15:21:49;;;;;;;3.37;2.30;;;;;;;;;;5052007;28;20025;-61
2023/01/15 15:24:23;;;;;;;2.73;1.80;;;;;;;;;;5051708;28;20025;-62
2023/01/15 15:26:49;;;;;;;6.53;3.40;;;;;;;;;;5045738;28;20025;-61
2023/01/15 15:29:17;;;;;;;4.67;2.67;;;;;;;;;;5035615;28;20052;-61
2023/01/15 15:31:54;;;;;;;3.27;2.10;;;;;;;;;;5031030;28;20084;-61
2023/01/15 15:34:24;;;;;;;2.83;1.93;;;;;;;;;;5030388;28;20037;-62
2023/01/15 15:36:51;;;;;;;4.10;2.40;;;;;;;;;;5030445;28;20025;-61
2023/01/15 15:39:28;;;;;;;3.63;2.20;;;;;;;;;;5030302;28;20547;-61
2023/01/15 15:50:26;;;;;;;5.17;2.27;;;;;;;;;;5041988;28;20147;-61
2023/01/15 15:52:53;;;;;;;6.70;2.37;;;;;;;;;;5052800;28;20025;-62
2023/01/15 15:55:21;;;;;;;3.10;2.40;;;;;;;;;;5040946;28;20508;-62
2023/01/15 15:57:51;;;;;;;6.27;2.43;;;;;;;;;;5032123;28;20095;-61
2023/01/15 16:00:19;;;;;;;4.20;2.07;;;;;;;;;;5049668;28;20041;-61
2023/01/15 16:02:46;;;;;;;9.13;1.90;;;;;;;;;;5041284;28;20033;-61
2023/01/15 16:05:18;;;;;;;3.30;2.20;;;;;;;;;;5035313;28;20048;-61
2023/01/15 16:07:45;;;;;;;19.80;2.70;;;;;;;;;;5051240;28;20033;-62